Halethorpe, Maryland
Current Conditions -  °F | °C
As of 11:54 PM on Saturday 20 Dec 2014 (Local Time) from KBWI Reporting Station
Broken Clouds Broken Clouds  
Wind Chill: 31°   Ceiling: 12000
Heat Index: 31°   Visibility: 10mi
Dew Point: 24°   Wind: 0mph
Humidity: 76%   Direction: NA
Pressure: 30.29"   Gusts: NA
Location:  39.24°N, 76.68°W
Report Text: KBWI 210454Z 00000KT 10SM SCT085 BKN120 M01/M04 A3029 RMK AO2 SLP259 T10061044 400331044
Loading
Personal Weather Stations






























Interactive Weather Map New forecast layout! Learn more

10-Day Weather Forecast

Advertisements
Track Severe Weather on mobile